createdAt,value
2018-03-07T00:00:56.416Z,64.12
2018-03-07T00:03:24.036Z,64.43
2018-03-07T00:05:51.728Z,64.16
2018-03-07T00:08:19.342Z,64.55
2018-03-07T00:10:47.007Z,64.27
2018-03-07T00:13:14.625Z,64.31
2018-03-07T00:15:42.273Z,65.30
2018-03-07T00:18:09.893Z,66.69
2018-03-07T00:20:37.600Z,68.81
2018-03-07T00:23:05.225Z,69.94
2018-03-07T00:25:32.829Z,69.68
2018-03-07T00:28:00.508Z,69.95
2018-03-07T00:30:28.112Z,69.90
2018-03-07T00:32:55.769Z,69.99
2018-03-07T00:35:23.388Z,69.80
2018-03-07T00:37:51.040Z,69.48
2018-03-07T00:40:18.641Z,68.91
2018-03-07T00:42:46.293Z,68.34
2018-03-07T00:45:13.903Z,67.93
2018-03-07T00:47:41.561Z,67.33
2018-03-07T00:50:09.175Z,66.14
2018-03-07T00:52:36.834Z,65.06
2018-03-07T00:55:04.473Z,64.02
2018-03-07T00:57:32.131Z,64.18
2018-03-07T00:59:59.752Z,64.23
2018-03-07T01:02:27.416Z,64.42
2018-03-07T01:04:55.055Z,64.83
2018-03-07T01:07:22.674Z,64.75
2018-03-07T01:09:50.348Z,64.48
2018-03-07T01:12:17.956Z,63.42
2018-03-07T01:14:45.748Z,62.57
2018-03-07T01:17:13.353Z,62.13
2018-03-07T01:19:41.001Z,62.29
2018-03-07T01:22:08.611Z,62.61
2018-03-07T01:24:36.276Z,62.05
2018-03-07T01:27:03.892Z,62.86
2018-03-07T01:29:31.588Z,63.15
2018-03-07T01:31:59.205Z,63.18
2018-03-07T01:34:26.892Z,63.39
2018-03-07T01:36:54.513Z,62.44
2018-03-07T01:39:22.164Z,63.89
2018-03-07T01:41:49.807Z,66.59
2018-03-07T01:44:17.450Z,68.10
2018-03-07T01:46:45.060Z,68.78
2018-03-07T01:49:12.731Z,67.76
2018-03-07T01:51:52.209Z,66.25
2018-03-07T01:54:19.816Z,66.46
2018-03-07T01:56:47.466Z,66.05
2018-03-07T01:59:15.079Z,65.25
2018-03-07T02:01:42.741Z,64.93
2018-03-07T02:04:10.353Z,65.00
2018-03-07T02:06:38.006Z,63.83
2018-03-07T02:09:05.628Z,63.54
2018-03-07T02:11:33.292Z,63.60
2018-03-07T02:14:00.935Z,64.51
2018-03-07T02:16:28.590Z,64.84
2018-03-07T02:18:56.218Z,64.34
2018-03-07T02:21:23.896Z,65.31
2018-03-07T02:23:51.512Z,65.72
2018-03-07T02:26:19.177Z,67.90
2018-03-07T02:28:46.809Z,67.16
2018-03-07T02:31:14.437Z,66.01
2018-03-07T02:33:42.089Z,63.33
2018-03-07T02:36:21.435Z,63.75
2018-03-07T02:38:49.089Z,64.52
2018-03-07T02:41:16.700Z,64.22
2018-03-07T02:43:44.365Z,63.76
2018-03-07T02:46:12.009Z,62.82
2018-03-07T02:48:39.661Z,62.40
2018-03-07T02:51:07.286Z,62.67
2018-03-07T02:53:34.936Z,62.65
2018-03-07T02:56:02.556Z,62.42
2018-03-07T02:58:30.201Z,61.85
2018-03-07T03:00:57.855Z,62.20
2018-03-07T03:03:25.525Z,61.54
2018-03-07T03:05:53.131Z,61.73
2018-03-07T03:08:20.790Z,62.68
2018-03-07T03:13:21.320Z,61.51
2018-03-07T03:15:48.928Z,60.93
2018-03-07T03:18:16.578Z,60.72
2018-03-07T03:20:44.201Z,60.32
2018-03-07T03:23:11.860Z,60.16
2018-03-07T03:25:39.463Z,59.84
2018-03-07T03:28:07.145Z,59.50
2018-03-07T03:30:34.817Z,60.84
2018-03-07T03:33:02.477Z,61.60
2018-03-07T03:35:30.132Z,62.12
2018-03-07T03:37:57.753Z,62.19
2018-03-07T03:40:25.431Z,63.06
2018-03-07T03:42:53.070Z,63.58
2018-03-07T03:45:20.733Z,62.62
2018-03-07T03:47:48.338Z,61.01
2018-03-07T03:50:15.984Z,63.82
2018-03-07T03:52:43.607Z,64.50
2018-03-07T03:55:11.255Z,68.56
2018-03-07T03:57:38.879Z,66.45
2018-03-07T04:00:06.541Z,66.08
2018-03-07T04:02:34.184Z,66.65
2018-03-07T04:05:01.834Z,66.06
2018-03-07T04:07:29.451Z,65.48
2018-03-07T04:09:57.129Z,64.81
2018-03-07T04:12:24.740Z,63.73
2018-03-07T04:14:52.413Z,62.57
2018-03-07T04:17:20.027Z,62.02
2018-03-07T04:19:47.733Z,61.95
2018-03-07T04:22:15.385Z,61.98
2018-03-07T04:24:43.008Z,63.31
2018-03-07T04:27:10.658Z,63.44
2018-03-07T04:29:38.290Z,63.35
2018-03-07T04:32:05.947Z,64.81
2018-03-07T04:34:33.582Z,66.42
2018-03-07T04:37:01.252Z,67.70
2018-03-07T04:39:28.856Z,67.51
2018-03-07T04:41:56.520Z,67.67
2018-03-07T04:44:24.142Z,66.99
2018-03-07T04:46:52.135Z,67.16
2018-03-07T04:49:19.795Z,67.32
2018-03-07T04:51:47.409Z,66.91
2018-03-07T04:54:15.086Z,66.79
2018-03-07T04:56:42.697Z,66.76
2018-03-07T04:59:10.373Z,65.96
2018-03-07T05:01:37.998Z,66.49
2018-03-07T05:04:05.637Z,66.68
2018-03-07T05:06:33.259Z,66.21
2018-03-07T05:09:00.958Z,67.03
2018-03-07T05:11:28.579Z,66.94
2018-03-07T05:13:56.240Z,66.66
2018-03-07T05:16:23.859Z,67.56
2018-03-07T05:18:51.457Z,67.99
2018-03-07T05:21:19.144Z,67.66
2018-03-07T05:23:46.768Z,67.08
2018-03-07T05:26:14.416Z,66.36
2018-03-07T05:28:42.036Z,68.99
2018-03-07T05:31:09.684Z,71.54
2018-03-07T05:33:37.337Z,73.21
2018-03-07T05:36:05.024Z,75.84
2018-03-07T05:38:32.631Z,76.95
2018-03-07T05:41:00.273Z,77.40
2018-03-07T05:43:27.880Z,78.30
2018-03-07T05:45:55.528Z,75.53
2018-03-07T05:48:23.132Z,72.76
2018-03-07T05:50:50.788Z,71.34
2018-03-07T05:53:18.404Z,70.72
2018-03-07T05:55:46.017Z,69.60
2018-03-07T05:58:13.667Z,69.21
2018-03-07T06:00:41.292Z,68.68
2018-03-07T06:03:08.947Z,68.00
2018-03-07T06:05:36.560Z,67.34
2018-03-07T06:08:04.204Z,67.29
2018-03-07T06:10:31.841Z,68.27
2018-03-07T06:12:59.584Z,68.94
2018-03-07T06:15:27.205Z,69.42
2018-03-07T06:17:54.853Z,70.28
2018-03-07T06:20:22.461Z,70.40
2018-03-07T06:22:50.119Z,70.26
2018-03-07T06:25:17.714Z,69.73
2018-03-07T06:27:45.372Z,68.90
2018-03-07T06:30:12.985Z,68.01
2018-03-07T06:32:40.671Z,68.65
2018-03-07T06:35:08.292Z,69.12
2018-03-07T06:37:36.003Z,68.73
2018-03-07T06:40:03.716Z,67.08
2018-03-07T06:42:31.371Z,65.75
2018-03-07T06:44:58.988Z,66.16
2018-03-07T06:47:26.608Z,66.74
2018-03-07T06:49:54.261Z,65.79
2018-03-07T06:52:21.884Z,66.24
2018-03-07T06:54:49.552Z,65.42
2018-03-07T06:57:17.167Z,65.14
2018-03-07T06:59:44.893Z,66.70
2018-03-07T07:02:12.499Z,68.14
2018-03-07T07:04:40.141Z,69.77
2018-03-07T07:07:07.752Z,69.95
2018-03-07T07:09:35.422Z,70.89
2018-03-07T07:12:03.054Z,71.75
2018-03-07T07:14:30.705Z,73.19
2018-03-07T07:16:58.362Z,72.73
2018-03-07T07:19:26.060Z,72.99
2018-03-07T07:21:53.687Z,72.51
2018-03-07T07:24:21.354Z,71.95
2018-03-07T07:26:48.969Z,71.82
2018-03-07T07:29:16.633Z,71.89
2018-03-07T07:31:44.239Z,71.37
2018-03-07T07:34:11.920Z,70.32
2018-03-07T07:36:39.524Z,70.34
2018-03-07T07:39:07.246Z,70.45
2018-03-07T07:41:34.866Z,69.59
2018-03-07T07:44:02.520Z,68.59
2018-03-07T07:46:30.123Z,72.30
2018-03-07T07:48:57.823Z,71.98
2018-03-07T07:51:25.432Z,72.10
2018-03-07T07:53:53.077Z,70.67
2018-03-07T07:56:20.684Z,69.81
2018-03-07T07:58:48.369Z,69.93
2018-03-07T08:01:15.992Z,73.55
2018-03-07T08:03:43.660Z,75.60
2018-03-07T08:06:11.272Z,75.33
2018-03-07T08:08:38.932Z,74.52
2018-03-07T08:11:06.573Z,72.54
2018-03-07T08:13:34.267Z,71.36
2018-03-07T08:16:01.923Z,71.74
2018-03-07T08:18:29.594Z,70.69
2018-03-07T08:20:57.201Z,69.14
2018-03-07T08:23:24.880Z,67.97
2018-03-07T08:25:52.487Z,67.79
2018-03-07T08:28:20.133Z,67.36
2018-03-07T08:30:47.747Z,67.46
2018-03-07T08:33:15.408Z,67.96
2018-03-07T08:35:43.100Z,68.60
2018-03-07T08:38:10.726Z,69.20
2018-03-07T08:40:38.341Z,69.61
2018-03-07T08:43:05.998Z,69.17
2018-03-07T08:45:33.615Z,69.19
2018-03-07T08:48:01.264Z,68.55
2018-03-07T08:50:28.917Z,68.87
2018-03-07T08:52:56.520Z,69.61
2018-03-07T08:55:24.202Z,69.41
2018-03-07T08:57:51.821Z,69.51
2018-03-07T09:00:19.546Z,68.89
2018-03-07T09:02:47.179Z,68.71
2018-03-07T09:05:14.920Z,68.90
2018-03-07T09:07:42.533Z,68.95
2018-03-07T09:10:10.266Z,66.66
2018-03-07T09:12:37.845Z,65.87
2018-03-07T09:15:05.512Z,65.61
2018-03-07T09:17:33.125Z,65.42
2018-03-07T09:20:00.805Z,66.07
2018-03-07T09:22:28.481Z,64.90
2018-03-07T09:24:56.135Z,64.12
2018-03-07T09:27:23.744Z,64.09
2018-03-07T09:29:51.396Z,64.79
2018-03-07T09:32:19.045Z,65.87
2018-03-07T09:34:46.726Z,66.32
2018-03-07T09:37:14.404Z,67.02
2018-03-07T09:39:42.078Z,68.79
2018-03-07T09:42:09.706Z,70.01
2018-03-07T09:44:37.380Z,72.76
2018-03-07T09:47:05.013Z,71.87
2018-03-07T09:49:32.664Z,70.26
2018-03-07T09:52:00.297Z,67.87
2018-03-07T09:54:28.030Z,66.76
2018-03-07T09:56:55.661Z,66.89
2018-03-07T09:59:23.353Z,68.32
2018-03-07T10:01:51.016Z,68.10
2018-03-07T10:04:18.685Z,66.77
2018-03-07T10:06:46.296Z,65.03
2018-03-07T10:09:13.958Z,65.94
2018-03-07T10:11:41.560Z,67.13
2018-03-07T10:14:09.217Z,66.11
2018-03-07T10:16:36.907Z,65.14
2018-03-07T10:19:04.616Z,64.65
2018-03-07T10:21:32.238Z,64.57
2018-03-07T10:23:59.888Z,64.58
2018-03-07T10:26:27.512Z,64.20
2018-03-07T10:28:55.161Z,64.76
2018-03-07T10:31:22.777Z,64.80
2018-03-07T10:33:50.460Z,64.37
2018-03-07T10:36:18.080Z,63.54
2018-03-07T10:38:45.764Z,62.68
2018-03-07T10:41:13.409Z,62.61
2018-03-07T10:43:41.063Z,63.11
2018-03-07T10:46:08.681Z,61.07
2018-03-07T10:48:36.370Z,60.71
2018-03-07T10:51:03.997Z,59.71
2018-03-07T10:53:31.659Z,59.22
2018-03-07T10:55:59.296Z,57.27
2018-03-07T10:58:26.896Z,59.23
2018-03-07T11:00:54.537Z,58.13
2018-03-07T11:03:22.163Z,59.79
2018-03-07T11:05:49.823Z,58.62
2018-03-07T11:08:17.416Z,53.56
2018-03-07T11:10:45.053Z,51.86
2018-03-07T11:13:12.664Z,55.05
2018-03-07T11:15:40.730Z,56.49
2018-03-07T11:18:08.354Z,58.55
2018-03-07T11:20:36.077Z,59.06
2018-03-07T11:23:03.686Z,59.34
2018-03-07T11:25:31.347Z,58.93
2018-03-07T11:27:58.997Z,58.60
2018-03-07T11:30:26.656Z,57.87
2018-03-07T11:32:54.281Z,58.35
2018-03-07T11:35:21.934Z,58.30
2018-03-07T11:37:49.836Z,57.61
2018-03-07T11:40:17.624Z,59.36
2018-03-07T11:42:45.248Z,59.99
2018-03-07T11:45:12.912Z,60.13
2018-03-07T11:47:40.520Z,59.67
2018-03-07T11:50:08.161Z,59.48
2018-03-07T11:52:35.772Z,60.80
2018-03-07T11:55:03.428Z,60.36
2018-03-07T11:57:31.036Z,58.78
2018-03-07T11:59:58.684Z,57.84
2018-03-07T12:02:26.339Z,57.55
2018-03-07T12:04:53.984Z,58.44
2018-03-07T12:07:21.592Z,58.81
2018-03-07T12:09:49.291Z,58.94
2018-03-07T12:12:16.893Z,60.18
2018-03-07T12:14:44.549Z,59.49
2018-03-07T12:17:12.228Z,59.48
2018-03-07T12:19:39.937Z,60.13
2018-03-07T12:22:07.540Z,60.52
2018-03-07T12:24:35.264Z,60.03
2018-03-07T12:27:02.875Z,60.07
2018-03-07T12:29:30.531Z,59.00
2018-03-07T12:31:58.156Z,57.44
2018-03-07T12:34:25.880Z,57.37
2018-03-07T12:36:53.492Z,56.21
2018-03-07T12:39:21.147Z,57.06
2018-03-07T12:41:48.793Z,56.77
2018-03-07T12:44:16.476Z,56.07
2018-03-07T12:46:44.078Z,56.39
2018-03-07T12:49:11.724Z,54.99
2018-03-07T12:51:39.328Z,55.63
2018-03-07T12:54:06.979Z,55.95
2018-03-07T12:56:34.590Z,54.81
2018-03-07T12:59:02.292Z,53.66
2018-03-07T13:01:29.905Z,54.08
2018-03-07T13:03:57.516Z,54.39
2018-03-07T13:06:25.210Z,52.79
2018-03-07T13:08:52.820Z,51.86
2018-03-07T13:11:20.461Z,52.46
2018-03-07T13:13:48.082Z,53.30
2018-03-07T13:16:15.728Z,52.80
2018-03-07T13:18:43.344Z,51.98
2018-03-07T13:21:10.989Z,50.58
2018-03-07T13:23:38.600Z,49.51
2018-03-07T13:26:06.261Z,50.76
2018-03-07T13:28:33.856Z,50.56
2018-03-07T13:31:01.509Z,50.45
2018-03-07T13:33:29.128Z,50.36
2018-03-07T13:35:56.776Z,49.85
2018-03-07T13:38:24.390Z,49.33
2018-03-07T13:40:52.037Z,50.15
2018-03-07T13:43:19.647Z,50.60
2018-03-07T13:45:47.344Z,51.11
2018-03-07T13:48:14.980Z,51.55
2018-03-07T13:50:42.690Z,51.57
2018-03-07T13:53:10.333Z,52.30
2018-03-07T13:55:37.980Z,52.11
2018-03-07T13:58:05.610Z,51.73
2018-03-07T14:00:33.253Z,51.48
2018-03-07T14:03:00.869Z,51.75
2018-03-07T14:05:28.554Z,50.67
2018-03-07T14:07:56.175Z,50.56
2018-03-07T14:10:23.821Z,51.01
2018-03-07T14:12:51.421Z,51.03
2018-03-07T14:15:19.069Z,51.05
2018-03-07T14:17:46.684Z,51.21
2018-03-07T14:20:14.328Z,51.29
2018-03-07T14:22:41.952Z,51.59
2018-03-07T14:25:09.614Z,50.85
2018-03-07T14:30:10.214Z,50.83
2018-03-07T14:32:37.836Z,50.83
2018-03-07T14:35:05.765Z,51.70
2018-03-07T14:37:33.377Z,51.61
2018-03-07T14:40:01.510Z,52.43
2018-03-07T14:42:29.125Z,52.73
2018-03-07T14:44:56.807Z,53.18
2018-03-07T14:47:24.424Z,53.33
2018-03-07T14:49:52.130Z,53.84
2018-03-07T14:52:19.724Z,54.49
2018-03-07T14:54:47.364Z,58.40
2018-03-07T14:57:15.067Z,69.87
2018-03-07T14:59:42.761Z,71.54
2018-03-07T15:02:10.661Z,71.64
2018-03-07T15:04:38.315Z,71.00
2018-03-07T15:07:05.924Z,72.34
2018-03-07T15:09:33.573Z,72.35
2018-03-07T15:12:01.184Z,72.01
2018-03-07T15:14:28.852Z,70.26
2018-03-07T15:16:57.421Z,68.46
2018-03-07T15:19:25.046Z,68.06
2018-03-07T15:21:52.724Z,66.42
2018-03-07T15:24:20.331Z,65.79
2018-03-07T15:26:48.134Z,65.27
2018-03-07T15:29:15.768Z,65.75
2018-03-07T15:31:43.421Z,67.19
2018-03-07T15:34:11.045Z,67.58
2018-03-07T15:36:38.689Z,64.29
2018-03-07T15:39:06.290Z,66.10
2018-03-07T15:41:33.951Z,64.83
2018-03-07T15:44:01.556Z,66.07
2018-03-07T15:46:29.246Z,66.24
2018-03-07T15:48:56.844Z,65.04
2018-03-07T15:51:24.864Z,66.08
2018-03-07T15:53:52.820Z,65.60
2018-03-07T15:56:20.751Z,63.83
2018-03-07T15:58:48.522Z,64.63
2018-03-07T16:01:16.273Z,65.89
2018-03-07T16:03:43.881Z,65.01
2018-03-07T16:06:11.522Z,64.43
2018-03-07T16:08:39.420Z,64.92
2018-03-07T16:11:07.066Z,64.99
2018-03-07T16:13:34.934Z,63.96
2018-03-07T16:16:02.696Z,63.55
2018-03-07T16:18:30.316Z,64.85
2018-03-07T16:20:57.957Z,64.55
2018-03-07T16:23:25.561Z,65.08
2018-03-07T16:25:53.221Z,64.40
2018-03-07T16:28:20.830Z,65.27
2018-03-07T16:30:48.592Z,63.70
2018-03-07T16:33:16.205Z,64.30
2018-03-07T16:35:43.864Z,63.41
2018-03-07T16:38:11.460Z,63.08
2018-03-07T16:40:39.096Z,62.93
2018-03-07T16:43:06.720Z,62.79
2018-03-07T16:45:34.368Z,63.42
2018-03-07T16:48:01.998Z,63.18
2018-03-07T16:50:29.649Z,63.24
2018-03-07T16:52:57.247Z,63.62
2018-03-07T16:55:24.896Z,62.67
2018-03-07T16:57:52.512Z,62.20
2018-03-07T17:00:20.172Z,63.07
2018-03-07T17:02:47.777Z,62.85
2018-03-07T17:05:15.415Z,63.25
2018-03-07T17:07:43.021Z,63.22
2018-03-07T17:10:10.744Z,63.27
2018-03-07T17:12:38.371Z,63.63
2018-03-07T17:15:06.012Z,65.13
2018-03-07T17:17:33.616Z,65.48
2018-03-07T17:20:02.782Z,65.86
2018-03-07T17:22:30.436Z,65.73
2018-03-07T17:24:58.045Z,65.36
2018-03-07T17:27:25.700Z,65.15
2018-03-07T17:29:53.309Z,65.13
2018-03-07T17:32:20.965Z,65.27
2018-03-07T17:34:48.564Z,64.99
2018-03-07T17:37:16.205Z,64.84
2018-03-07T17:39:43.855Z,64.73
2018-03-07T17:42:11.501Z,64.81
2018-03-07T17:44:39.135Z,64.74
2018-03-07T17:47:06.773Z,65.75
2018-03-07T17:49:34.379Z,65.33
2018-03-07T17:52:02.021Z,65.18
2018-03-07T17:54:29.732Z,65.45
2018-03-07T17:56:58.090Z,64.80
2018-03-07T17:59:25.800Z,65.41
2018-03-07T18:01:53.433Z,66.18
2018-03-07T18:04:21.036Z,66.57
2018-03-07T18:06:48.948Z,66.00
2018-03-07T18:09:16.640Z,66.54
2018-03-07T18:11:44.406Z,65.95
2018-03-07T18:14:12.244Z,66.28
2018-03-07T18:16:40.122Z,66.24
2018-03-07T18:19:08.079Z,66.25
2018-03-07T18:21:35.719Z,65.97
2018-03-07T18:24:03.323Z,66.12
2018-03-07T18:26:30.924Z,66.05
2018-03-07T18:28:58.620Z,66.41
2018-03-07T18:31:26.256Z,66.50
2018-03-07T18:33:54.472Z,66.27
2018-03-07T18:36:22.154Z,66.35
2018-03-07T18:38:50.313Z,66.07
2018-03-07T18:41:18.417Z,65.31
2018-03-07T18:43:46.117Z,65.73
2018-03-07T18:46:13.783Z,66.07
2018-03-07T18:48:41.548Z,65.59
2018-03-07T18:51:09.149Z,65.71
2018-03-07T18:53:36.800Z,65.39
2018-03-07T18:56:04.400Z,65.51
2018-03-07T18:58:32.045Z,65.10
2018-03-07T19:00:59.769Z,64.13
2018-03-07T19:03:27.641Z,64.21
2018-03-07T19:05:55.770Z,63.85
2018-03-07T19:08:23.513Z,63.84
2018-03-07T19:10:55.141Z,63.79
2018-03-07T19:13:22.799Z,64.04
2018-03-07T19:15:55.178Z,64.23
2018-03-07T19:18:22.876Z,64.15
2018-03-07T19:20:50.532Z,63.79
2018-03-07T19:23:18.140Z,63.83
2018-03-07T19:25:45.785Z,64.21
2018-03-07T19:28:13.384Z,63.86
2018-03-07T19:30:41.039Z,63.85
2018-03-07T19:33:08.665Z,63.95
2018-03-07T19:35:36.356Z,64.41
2018-03-07T19:38:03.957Z,64.07
2018-03-07T19:40:31.596Z,64.98
2018-03-07T19:42:59.347Z,65.08
2018-03-07T19:45:26.996Z,65.04
2018-03-07T19:47:54.620Z,65.08
2018-03-07T19:50:22.269Z,65.25
2018-03-07T19:52:49.891Z,65.78
2018-03-07T19:55:17.532Z,66.30
2018-03-07T19:57:45.145Z,66.02
2018-03-07T20:00:12.837Z,66.20
2018-03-07T20:02:40.426Z,66.07
2018-03-07T20:05:08.022Z,66.28
2018-03-07T20:07:35.671Z,66.04
2018-03-07T20:10:03.272Z,66.29
2018-03-07T20:12:30.959Z,66.00
2018-03-07T20:14:58.579Z,66.08
2018-03-07T20:17:26.224Z,66.07
2018-03-07T20:19:53.839Z,66.29
2018-03-07T20:22:21.495Z,66.53
2018-03-07T20:24:49.088Z,66.52
2018-03-07T20:27:16.733Z,65.98
2018-03-07T20:29:44.342Z,65.76
2018-03-07T20:32:11.988Z,65.84
2018-03-07T20:34:39.611Z,65.25
2018-03-07T20:37:07.263Z,65.91
2018-03-07T20:39:34.873Z,65.47
2018-03-07T20:42:02.519Z,65.38
2018-03-07T20:44:30.118Z,65.20
2018-03-07T20:46:58.151Z,64.73
2018-03-07T20:49:25.761Z,65.25
2018-03-07T20:51:53.403Z,64.71
2018-03-07T20:54:21.006Z,64.22
2018-03-07T20:56:48.727Z,64.28
2018-03-07T20:59:16.341Z,64.17
2018-03-07T21:01:44.016Z,64.67
2018-03-07T21:04:11.637Z,64.89
2018-03-07T21:06:39.289Z,64.33
2018-03-07T21:09:06.905Z,64.07
2018-03-07T21:11:34.556Z,63.84
2018-03-07T21:14:02.158Z,63.45
2018-03-07T21:16:29.796Z,62.48
2018-03-07T21:18:57.402Z,62.90
2018-03-07T21:21:25.058Z,63.88
2018-03-07T21:23:52.676Z,64.82
2018-03-07T21:26:20.317Z,65.02
2018-03-07T21:28:47.916Z,65.61
2018-03-07T21:31:15.648Z,65.47
2018-03-07T21:33:43.248Z,65.79
2018-03-07T21:36:10.897Z,65.56
2018-03-07T21:38:38.510Z,66.12
2018-03-07T21:41:06.112Z,65.15
2018-03-07T21:43:33.768Z,65.76
2018-03-07T21:46:01.415Z,65.33
2018-03-07T21:48:29.051Z,66.17
2018-03-07T21:50:56.677Z,66.67
2018-03-07T21:53:24.325Z,65.99
2018-03-07T21:55:52.292Z,66.02
2018-03-07T21:58:19.993Z,65.81
2018-03-07T22:00:47.592Z,65.29
2018-03-07T22:03:15.252Z,65.21
2018-03-07T22:05:42.866Z,64.63
2018-03-07T22:08:10.525Z,64.08
2018-03-07T22:10:38.123Z,64.49
2018-03-07T22:13:05.784Z,64.52
2018-03-07T22:15:33.430Z,63.99
2018-03-07T22:18:01.112Z,63.79
2018-03-07T22:20:28.736Z,63.76
2018-03-07T22:22:56.381Z,64.17
2018-03-07T22:25:23.980Z,64.17
2018-03-07T22:27:51.624Z,64.35
2018-03-07T22:30:19.229Z,64.02
2018-03-07T22:32:46.868Z,64.39
2018-03-07T22:35:14.487Z,63.92
2018-03-07T22:37:42.126Z,63.67
2018-03-07T22:40:09.731Z,64.07
2018-03-07T22:42:37.376Z,63.64
2018-03-07T22:45:04.980Z,63.74
2018-03-07T22:47:32.624Z,63.38
2018-03-07T22:50:00.250Z,63.29
2018-03-07T22:52:27.898Z,63.37
2018-03-07T22:54:55.526Z,63.07
2018-03-07T22:57:23.169Z,63.24
2018-03-07T22:59:50.777Z,63.38
2018-03-07T23:02:18.424Z,63.50
2018-03-07T23:04:46.018Z,63.07
2018-03-07T23:07:13.673Z,62.96
2018-03-07T23:09:41.317Z,63.40
2018-03-07T23:12:08.971Z,63.39
2018-03-07T23:14:36.571Z,63.17
2018-03-07T23:17:04.233Z,62.66
2018-03-07T23:19:32.737Z,62.68
2018-03-07T23:22:00.434Z,62.06
2018-03-07T23:24:28.040Z,61.60
2018-03-07T23:26:55.688Z,61.44
2018-03-07T23:29:23.288Z,61.59
2018-03-07T23:31:50.984Z,61.71
2018-03-07T23:34:18.588Z,61.58
2018-03-07T23:36:46.224Z,61.65
2018-03-07T23:39:13.837Z,61.80
2018-03-07T23:41:41.518Z,62.13
2018-03-07T23:44:09.205Z,62.29
2018-03-07T23:46:36.808Z,62.27
2018-03-07T23:49:04.449Z,62.10
2018-03-07T23:51:32.060Z,61.70
2018-03-07T23:53:59.698Z,62.14
2018-03-07T23:56:27.289Z,62.72
2018-03-07T23:58:54.943Z,62.58
